createdAt,value
2019-06-20T00:00:18.814Z,24.47
2019-06-20T00:01:18.806Z,24.55
2019-06-20T00:02:18.804Z,24.57
2019-06-20T00:03:18.797Z,24.54
2019-06-20T00:04:18.795Z,24.53
2019-06-20T00:05:18.756Z,24.53
2019-06-20T00:06:18.751Z,24.57
2019-06-20T00:07:18.749Z,24.54
2019-06-20T00:08:18.732Z,24.51
2019-06-20T00:09:18.778Z,24.53
2019-06-20T00:10:18.738Z,24.58
2019-06-20T00:11:18.693Z,24.54
2019-06-20T00:12:18.681Z,24.50
2019-06-20T00:13:18.670Z,24.51
2019-06-20T00:14:18.663Z,24.57
2019-06-20T00:15:18.916Z,24.60
2019-06-20T00:16:18.638Z,24.63
2019-06-20T00:17:18.656Z,24.65
2019-06-20T00:18:18.630Z,24.69
2019-06-20T00:19:18.605Z,24.69
2019-06-20T00:20:18.596Z,24.73
2019-06-20T00:21:18.587Z,24.76
2019-06-20T00:22:18.574Z,24.80
2019-06-20T00:23:18.572Z,24.80
2019-06-20T00:24:18.554Z,24.77
2019-06-20T00:25:18.546Z,24.89
2019-06-20T00:26:18.536Z,24.89
2019-06-20T00:27:18.534Z,24.93
2019-06-20T00:28:18.504Z,24.95
2019-06-20T00:29:18.507Z,24.92
2019-06-20T00:30:18.483Z,24.92
2019-06-20T00:31:18.471Z,24.86
2019-06-20T00:32:18.496Z,24.84
2019-06-20T00:33:18.466Z,24.73
2019-06-20T00:34:18.440Z,24.73
2019-06-20T00:35:18.430Z,24.69
2019-06-20T00:36:18.415Z,24.69
2019-06-20T00:37:18.409Z,24.68
2019-06-20T00:38:18.427Z,24.68
2019-06-20T00:39:18.411Z,24.60
2019-06-20T00:40:18.420Z,24.54
2019-06-20T00:41:18.368Z,24.39
2019-06-20T00:42:18.367Z,24.35
2019-06-20T00:43:18.599Z,24.28
2019-06-20T00:44:18.633Z,24.35
2019-06-20T00:45:18.327Z,24.24
2019-06-20T00:46:18.308Z,24.28
2019-06-20T00:47:18.298Z,24.20
2019-06-20T00:48:18.284Z,24.20
2019-06-20T00:49:18.281Z,24.10
2019-06-20T00:50:18.292Z,24.05
2019-06-20T00:51:18.253Z,24.02
2019-06-20T00:52:18.241Z,24.10
2019-06-20T00:53:18.231Z,23.99
2019-06-20T00:54:18.228Z,23.98
2019-06-20T00:55:18.213Z,23.98
2019-06-20T00:56:18.232Z,24.08
2019-06-20T00:57:18.185Z,24.01
2019-06-20T00:58:18.171Z,23.98
2019-06-20T00:59:18.165Z,23.95
2019-06-20T01:00:18.154Z,23.98
2019-06-20T01:01:18.176Z,23.93
2019-06-20T01:02:18.172Z,23.87
2019-06-20T01:03:18.118Z,23.88
2019-06-20T01:04:18.108Z,23.87
2019-06-20T01:05:18.103Z,23.91
2019-06-20T01:06:18.139Z,23.76
2019-06-20T01:07:18.074Z,23.80
2019-06-20T01:08:18.112Z,23.80
2019-06-20T01:09:18.054Z,23.69
2019-06-20T01:10:18.066Z,23.69
2019-06-20T01:11:18.030Z,23.71
2019-06-20T01:12:18.060Z,23.80
2019-06-20T01:13:32.652Z,23.83
2019-06-20T01:14:18.997Z,23.77
2019-06-20T01:15:17.988Z,23.81
2019-06-20T01:16:18.006Z,23.88
2019-06-20T01:17:17.967Z,23.95
2019-06-20T01:18:18.144Z,23.91
2019-06-20T01:19:17.963Z,23.91
2019-06-20T01:20:17.938Z,23.83
2019-06-20T01:21:17.924Z,23.87
2019-06-20T01:22:17.917Z,23.88
2019-06-20T01:23:32.749Z,23.93
2019-06-20T01:24:17.901Z,23.87
2019-06-20T01:25:17.877Z,23.92
2019-06-20T01:26:17.865Z,23.92
2019-06-20T01:27:17.855Z,23.93
2019-06-20T01:28:17.846Z,23.93
2019-06-20T01:29:17.845Z,23.87
2019-06-20T01:30:17.839Z,23.95
2019-06-20T01:31:17.808Z,23.80
2019-06-20T01:32:17.806Z,23.76
2019-06-20T01:33:17.788Z,23.69
2019-06-20T01:34:17.779Z,23.63
2019-06-20T01:35:17.784Z,23.73
2019-06-20T01:36:17.756Z,23.66
2019-06-20T01:37:17.744Z,23.66
2019-06-20T01:38:17.754Z,23.59
2019-06-20T01:39:17.729Z,23.73
2019-06-20T01:40:17.729Z,23.65
2019-06-20T01:41:17.720Z,23.59
2019-06-20T01:42:17.695Z,23.55
2019-06-20T01:43:17.677Z,23.65
2019-06-20T01:44:17.668Z,23.55
2019-06-20T01:45:17.656Z,23.47
2019-06-20T01:46:17.647Z,23.41
2019-06-20T01:47:19.393Z,23.36
2019-06-20T01:48:17.623Z,23.25
2019-06-20T01:49:17.657Z,23.25
2019-06-20T01:50:17.602Z,23.21
2019-06-20T01:51:17.595Z,23.15
2019-06-20T01:52:17.597Z,23.20
2019-06-20T01:53:17.573Z,23.10
2019-06-20T01:54:17.561Z,23.09
2019-06-20T01:55:17.553Z,22.99
2019-06-20T01:56:17.538Z,22.90
2019-06-20T01:57:17.524Z,23.00
2019-06-20T01:58:17.576Z,22.96
2019-06-20T01:59:17.502Z,22.84
2019-06-20T02:00:17.491Z,22.80
2019-06-20T02:01:17.480Z,22.75
2019-06-20T02:02:17.475Z,22.69
2019-06-20T02:03:17.475Z,22.70
2019-06-20T02:04:17.448Z,22.62
2019-06-20T02:05:17.454Z,22.55
2019-06-20T02:06:17.424Z,22.62
2019-06-20T02:07:17.425Z,22.54
2019-06-20T02:08:17.406Z,22.50
2019-06-20T02:09:17.605Z,22.39
2019-06-20T02:10:17.380Z,22.38
2019-06-20T02:11:17.371Z,22.41
2019-06-20T02:12:17.357Z,22.35
2019-06-20T02:13:17.356Z,22.22
2019-06-20T02:14:17.341Z,22.29
2019-06-20T02:15:17.347Z,22.22
2019-06-20T02:16:17.315Z,22.18
2019-06-20T02:17:17.307Z,22.28
2019-06-20T02:18:17.292Z,22.17
2019-06-20T02:19:17.279Z,22.10
2019-06-20T02:20:17.283Z,22.02
2019-06-20T02:21:17.259Z,22.15
2019-06-20T02:22:17.251Z,22.10
2019-06-20T02:23:17.237Z,22.11
2019-06-20T02:24:17.231Z,22.13
2019-06-20T02:25:17.224Z,22.04
2019-06-20T02:26:17.246Z,22.14
2019-06-20T02:27:17.194Z,22.06
2019-06-20T02:28:17.176Z,22.17
2019-06-20T02:29:17.166Z,22.10
2019-06-20T02:30:17.173Z,22.00
2019-06-20T02:31:17.164Z,22.04
2019-06-20T02:32:17.160Z,22.06
2019-06-20T02:33:17.133Z,22.02
2019-06-20T02:34:17.116Z,21.95
2019-06-20T02:35:17.100Z,21.92
2019-06-20T02:36:17.093Z,21.91
2019-06-20T02:37:17.093Z,21.76
2019-06-20T02:38:17.065Z,21.82
2019-06-20T02:39:17.071Z,21.76
2019-06-20T02:40:17.064Z,21.67
2019-06-20T02:41:17.033Z,21.72
2019-06-20T02:42:17.024Z,21.62
2019-06-20T02:43:17.011Z,21.62
2019-06-20T02:44:29.042Z,21.55
2019-06-20T02:45:17.988Z,21.64
2019-06-20T02:46:16.990Z,21.55
2019-06-20T02:47:16.988Z,21.60
2019-06-20T02:48:16.971Z,21.55
2019-06-20T02:49:16.944Z,21.61
2019-06-20T02:50:16.936Z,21.54
2019-06-20T02:51:16.936Z,21.51
2019-06-20T02:52:16.909Z,21.58
2019-06-20T02:53:16.896Z,21.50
2019-06-20T02:54:40.771Z,21.48
2019-06-20T02:55:16.895Z,21.52
2019-06-20T02:56:16.863Z,21.50
2019-06-20T02:57:16.860Z,21.55
2019-06-20T02:58:16.837Z,21.50
2019-06-20T02:59:16.834Z,21.48
2019-06-20T03:00:16.839Z,21.50
2019-06-20T03:01:16.806Z,21.43
2019-06-20T03:02:16.813Z,21.48
2019-06-20T03:03:16.796Z,21.43
2019-06-20T03:04:16.782Z,21.51
2019-06-20T03:05:16.760Z,21.40
2019-06-20T03:06:16.754Z,21.40
2019-06-20T03:07:16.741Z,21.45
2019-06-20T03:08:16.743Z,21.33
2019-06-20T03:09:16.723Z,21.37
2019-06-20T03:10:16.712Z,21.42
2019-06-20T03:11:16.700Z,21.39
2019-06-20T03:12:16.683Z,21.33
2019-06-20T03:13:16.691Z,21.37
2019-06-20T03:14:16.672Z,21.33
2019-06-20T03:15:16.652Z,21.29
2019-06-20T03:16:16.641Z,21.30
2019-06-20T03:17:16.640Z,21.45
2019-06-20T03:18:16.619Z,21.37
2019-06-20T03:19:16.802Z,21.32
2019-06-20T03:20:16.593Z,21.36
2019-06-20T03:21:16.603Z,21.42
2019-06-20T03:22:16.573Z,21.52
2019-06-20T03:23:16.567Z,21.48
2019-06-20T03:24:16.564Z,21.60
2019-06-20T03:25:16.538Z,21.52
2019-06-20T03:26:16.526Z,21.67
2019-06-20T03:27:16.515Z,21.67
2019-06-20T03:28:16.507Z,21.79
2019-06-20T03:29:16.497Z,21.83
2019-06-20T03:30:16.520Z,21.82
2019-06-20T03:31:16.507Z,21.77
2019-06-20T03:32:16.468Z,21.96
2019-06-20T03:33:16.457Z,21.92
2019-06-20T03:34:16.456Z,21.93
2019-06-20T03:35:16.426Z,21.79
2019-06-20T03:36:16.448Z,21.80
2019-06-20T03:37:16.400Z,21.85
2019-06-20T03:38:16.392Z,21.79
2019-06-20T03:39:16.379Z,21.73
2019-06-20T03:40:16.375Z,21.62
2019-06-20T03:41:16.355Z,21.57
2019-06-20T03:42:17.368Z,21.57
2019-06-20T03:43:16.343Z,21.58
2019-06-20T03:44:16.326Z,21.57
2019-06-20T03:45:16.315Z,21.55
2019-06-20T03:46:16.299Z,21.52
2019-06-20T03:47:16.297Z,21.50
2019-06-20T03:48:16.316Z,21.46
2019-06-20T03:49:16.264Z,21.45
2019-06-20T03:50:16.251Z,21.48
2019-06-20T03:51:16.248Z,21.50
2019-06-20T03:52:16.233Z,21.50
2019-06-20T03:53:16.221Z,21.37
2019-06-20T03:54:16.224Z,21.37
2019-06-20T03:55:16.196Z,21.40
2019-06-20T03:56:16.190Z,21.42
2019-06-20T03:57:16.175Z,21.36
2019-06-20T03:58:16.162Z,21.50
2019-06-20T03:59:16.173Z,21.43
2019-06-20T04:00:16.146Z,21.54
2019-06-20T04:01:16.132Z,21.48
2019-06-20T04:02:16.129Z,21.60
2019-06-20T04:03:16.108Z,21.55
2019-06-20T04:04:16.094Z,21.58
2019-06-20T04:05:17.030Z,21.61
2019-06-20T04:06:16.075Z,21.69
2019-06-20T04:07:16.065Z,21.69
2019-06-20T04:08:16.049Z,21.70
2019-06-20T04:09:16.147Z,21.72
2019-06-20T04:10:16.056Z,21.79
2019-06-20T04:11:16.093Z,21.88
2019-06-20T04:12:16.021Z,21.77
2019-06-20T04:13:15.994Z,21.93
2019-06-20T04:14:15.997Z,21.80
2019-06-20T04:15:19.316Z,21.85
2019-06-20T04:16:17.298Z,21.93
2019-06-20T04:17:15.959Z,21.96
2019-06-20T04:18:15.937Z,21.95
2019-06-20T04:19:15.926Z,22.06
2019-06-20T04:20:15.918Z,22.00
2019-06-20T04:21:15.907Z,22.08
2019-06-20T04:22:15.916Z,22.08
2019-06-20T04:23:15.886Z,22.08
2019-06-20T04:24:15.869Z,22.11
2019-06-20T04:25:15.857Z,22.10
2019-06-20T04:26:15.849Z,22.04
2019-06-20T04:27:15.848Z,22.17
2019-06-20T04:28:15.835Z,22.07
2019-06-20T04:29:15.838Z,22.11
2019-06-20T04:30:15.831Z,22.13
2019-06-20T04:31:15.794Z,22.22
2019-06-20T04:32:15.791Z,22.18
2019-06-20T04:33:15.765Z,22.30
2019-06-20T04:34:15.768Z,22.28
2019-06-20T04:35:15.744Z,22.26
2019-06-20T04:36:15.734Z,22.30
2019-06-20T04:37:15.755Z,22.28
2019-06-20T04:38:15.712Z,22.18
2019-06-20T04:39:19.587Z,22.30
2019-06-20T04:40:15.707Z,22.28
2019-06-20T04:41:15.688Z,22.28
2019-06-20T04:42:18.646Z,22.28
2019-06-20T04:43:15.684Z,22.30
2019-06-20T04:44:15.663Z,22.30
2019-06-20T04:45:15.633Z,22.18
2019-06-20T04:46:15.618Z,22.41
2019-06-20T04:47:15.608Z,22.44
2019-06-20T04:48:15.602Z,22.45
2019-06-20T04:49:15.584Z,22.43
2019-06-20T04:50:15.821Z,22.44
2019-06-20T04:51:15.564Z,22.62
2019-06-20T04:52:15.563Z,22.45
2019-06-20T04:53:15.541Z,22.59
2019-06-20T04:54:15.533Z,22.62
2019-06-20T04:55:15.551Z,22.63
2019-06-20T04:56:15.524Z,22.81
2019-06-20T04:57:15.501Z,22.83
2019-06-20T04:58:15.498Z,22.94
2019-06-20T04:59:15.476Z,23.08
2019-06-20T05:00:15.462Z,23.17
2019-06-20T05:01:15.488Z,23.40
2019-06-20T05:02:15.441Z,23.55
2019-06-20T05:03:15.431Z,23.61
2019-06-20T05:04:15.419Z,23.61
2019-06-20T05:05:15.421Z,23.58
2019-06-20T05:06:15.398Z,23.68
2019-06-20T05:07:15.411Z,23.76
2019-06-20T05:08:15.461Z,23.74
2019-06-20T05:09:15.374Z,23.78
2019-06-20T05:10:15.389Z,23.74
2019-06-20T05:11:15.359Z,23.80
2019-06-20T05:12:15.354Z,23.73
2019-06-20T05:13:15.322Z,23.58
2019-06-20T05:14:15.310Z,23.54
2019-06-20T05:15:15.305Z,23.68
2019-06-20T05:16:15.286Z,23.78
2019-06-20T05:17:15.750Z,23.76
2019-06-20T05:18:15.340Z,23.93
2019-06-20T05:19:15.256Z,23.80
2019-06-20T05:20:15.254Z,23.76
2019-06-20T05:21:15.234Z,23.71
2019-06-20T05:22:15.223Z,23.74
2019-06-20T05:23:15.210Z,23.80
2019-06-20T05:24:15.213Z,23.86
2019-06-20T05:25:15.189Z,23.92
2019-06-20T05:26:15.180Z,24.08
2019-06-20T05:27:15.167Z,24.08
2019-06-20T05:28:15.155Z,24.24
2019-06-20T05:29:15.184Z,24.26
2019-06-20T05:30:15.139Z,24.38
2019-06-20T05:31:15.180Z,24.33
2019-06-20T05:32:15.123Z,24.33
2019-06-20T05:33:15.110Z,24.40
2019-06-20T05:34:15.099Z,24.38
2019-06-20T05:35:15.101Z,24.36
2019-06-20T05:36:15.089Z,24.51
2019-06-20T05:37:15.072Z,24.61
2019-06-20T05:38:15.048Z,24.77
2019-06-20T05:39:15.038Z,24.80
2019-06-20T05:40:15.071Z,24.78
2019-06-20T05:41:15.299Z,24.89
2019-06-20T05:42:15.002Z,24.95
2019-06-20T05:43:14.991Z,24.99
2019-06-20T05:44:15.011Z,25.06
2019-06-20T05:45:14.972Z,25.06
2019-06-20T05:46:14.962Z,25.16
2019-06-20T05:47:15.024Z,25.32
2019-06-20T05:48:14.939Z,25.41
2019-06-20T05:49:14.960Z,25.40
2019-06-20T05:50:14.921Z,25.44
2019-06-20T05:51:14.904Z,25.54
2019-06-20T05:52:14.909Z,25.38
2019-06-20T05:53:14.887Z,25.33
2019-06-20T05:54:14.872Z,25.36
2019-06-20T05:55:15.826Z,25.31
2019-06-20T05:56:14.851Z,25.31
2019-06-20T05:57:14.843Z,25.22
2019-06-20T05:58:15.492Z,25.21
2019-06-20T05:59:14.823Z,25.21
2019-06-20T06:00:14.827Z,25.35
2019-06-20T06:01:14.802Z,25.33
2019-06-20T06:02:14.788Z,25.38
2019-06-20T06:03:14.778Z,25.43
2019-06-20T06:04:14.856Z,25.35
2019-06-20T06:05:14.759Z,25.18
2019-06-20T06:06:14.742Z,25.14
2019-06-20T06:07:14.736Z,25.21
2019-06-20T06:08:14.720Z,25.22
2019-06-20T06:09:14.712Z,25.17
2019-06-20T06:10:14.860Z,25.16
2019-06-20T06:11:14.709Z,25.13
2019-06-20T06:12:14.688Z,25.13
2019-06-20T06:13:14.674Z,25.21
2019-06-20T06:14:14.660Z,25.36
2019-06-20T06:15:14.693Z,25.40
2019-06-20T06:16:25.580Z,25.38
2019-06-20T06:17:15.633Z,25.25
2019-06-20T06:18:14.622Z,25.10
2019-06-20T06:19:14.619Z,24.78
2019-06-20T06:20:14.590Z,24.51
2019-06-20T06:21:14.713Z,24.38
2019-06-20T06:22:14.586Z,24.28
2019-06-20T06:23:14.564Z,24.26
2019-06-20T06:24:14.552Z,23.96
2019-06-20T06:25:14.554Z,23.80
2019-06-20T06:26:14.535Z,23.58
2019-06-20T06:27:14.540Z,23.63
2019-06-20T06:28:14.510Z,23.47
2019-06-20T06:29:14.509Z,23.39
2019-06-20T06:30:14.553Z,23.43
2019-06-20T06:31:14.481Z,23.20
2019-06-20T06:32:14.526Z,23.17
2019-06-20T06:33:14.475Z,23.05
2019-06-20T06:34:14.466Z,22.87
2019-06-20T06:35:14.431Z,22.54
2019-06-20T06:36:14.423Z,22.35
2019-06-20T06:37:14.410Z,22.13
2019-06-20T06:38:14.417Z,21.77
2019-06-20T06:39:14.394Z,21.64
2019-06-20T06:40:14.390Z,21.37
2019-06-20T06:41:14.410Z,21.18
2019-06-20T06:42:14.358Z,21.00
2019-06-20T06:43:14.368Z,20.81
2019-06-20T06:44:14.334Z,20.75
2019-06-20T06:45:14.317Z,20.67
2019-06-20T06:46:14.327Z,20.74
2019-06-20T06:47:14.326Z,20.81
2019-06-20T06:48:14.284Z,20.99
2019-06-20T06:49:14.292Z,21.03
2019-06-20T06:50:14.262Z,21.32
2019-06-20T06:51:14.251Z,21.32
2019-06-20T06:52:14.260Z,21.43
2019-06-20T06:53:14.236Z,21.57
2019-06-20T06:54:14.260Z,21.80
2019-06-20T06:55:14.207Z,21.93
2019-06-20T06:56:14.225Z,22.15
2019-06-20T06:57:14.200Z,22.28
2019-06-20T06:58:14.187Z,22.43
2019-06-20T06:59:14.159Z,22.50
2019-06-20T07:00:14.168Z,22.45
2019-06-20T07:01:14.202Z,22.48
2019-06-20T07:02:14.126Z,22.45
2019-06-20T07:03:14.117Z,22.30
2019-06-20T07:04:14.113Z,22.20
2019-06-20T07:05:14.092Z,22.14
2019-06-20T07:06:14.143Z,22.02
2019-06-20T07:07:14.081Z,21.82
2019-06-20T07:08:14.067Z,21.79
2019-06-20T07:09:14.064Z,21.69
2019-06-20T07:10:14.056Z,21.77
2019-06-20T07:11:14.053Z,22.07
2019-06-20T07:12:14.020Z,22.15
2019-06-20T07:13:14.036Z,22.50
2019-06-20T07:14:14.005Z,22.70
2019-06-20T07:15:13.987Z,23.08
2019-06-20T07:16:13.971Z,23.46
2019-06-20T07:17:13.964Z,23.68
2019-06-20T07:18:13.956Z,24.10
2019-06-20T07:19:13.961Z,24.32
2019-06-20T07:20:15.226Z,24.45
2019-06-20T07:21:13.922Z,24.61
2019-06-20T07:22:13.903Z,24.69
2019-06-20T07:23:13.901Z,24.73
2019-06-20T07:24:13.922Z,24.69
2019-06-20T07:25:13.886Z,24.55
2019-06-20T07:26:13.870Z,24.48
2019-06-20T07:27:13.849Z,24.40
2019-06-20T07:28:13.836Z,24.28
2019-06-20T07:29:13.862Z,24.33
2019-06-20T07:30:13.826Z,24.32
2019-06-20T07:31:13.823Z,24.43
2019-06-20T07:32:13.809Z,24.65
2019-06-20T07:33:13.783Z,24.85
2019-06-20T07:34:13.807Z,25.07
2019-06-20T07:35:13.782Z,25.21
2019-06-20T07:36:13.769Z,25.32
2019-06-20T07:37:13.749Z,25.25
2019-06-20T07:38:13.731Z,25.25
2019-06-20T07:39:13.720Z,24.89
2019-06-20T07:40:13.723Z,24.89
2019-06-20T07:41:13.711Z,24.57
2019-06-20T07:42:13.688Z,24.32
2019-06-20T07:43:13.683Z,24.26
2019-06-20T07:44:13.695Z,24.03
2019-06-20T07:45:13.659Z,23.88
2019-06-20T07:46:13.643Z,23.78
2019-06-20T07:47:17.654Z,23.62
2019-06-20T07:48:13.625Z,23.63
2019-06-20T07:49:13.664Z,23.50
2019-06-20T07:50:13.598Z,23.54
2019-06-20T07:51:13.592Z,23.40
2019-06-20T07:52:13.602Z,23.47
2019-06-20T07:53:13.577Z,23.48
2019-06-20T07:54:13.560Z,23.47
2019-06-20T07:55:13.562Z,23.39
2019-06-20T07:56:13.530Z,23.25
2019-06-20T07:57:13.522Z,23.18
2019-06-20T07:58:13.527Z,23.15
2019-06-20T07:59:13.502Z,23.12
2019-06-20T08:00:13.492Z,23.09
2019-06-20T08:01:13.472Z,23.05
2019-06-20T08:02:13.474Z,23.08
2019-06-20T08:03:13.466Z,23.08
2019-06-20T08:04:13.465Z,23.17
2019-06-20T08:05:13.436Z,23.27
2019-06-20T08:06:13.423Z,23.47
2019-06-20T08:07:13.417Z,23.54
2019-06-20T08:08:13.403Z,23.61
2019-06-20T08:09:13.428Z,23.93
2019-06-20T08:10:13.396Z,24.08
2019-06-20T08:11:13.382Z,24.20
2019-06-20T08:12:13.355Z,24.23
2019-06-20T08:13:13.351Z,24.35
2019-06-20T08:14:13.346Z,24.42
2019-06-20T08:15:15.697Z,24.54
2019-06-20T08:16:13.322Z,24.68
2019-06-20T08:17:13.311Z,25.03
2019-06-20T08:18:13.287Z,25.21
2019-06-20T08:19:13.279Z,25.40
2019-06-20T08:20:13.275Z,25.55
2019-06-20T08:21:13.276Z,25.78
2019-06-20T08:22:13.243Z,26.18
2019-06-20T08:23:13.238Z,26.45
2019-06-20T08:24:13.220Z,27.39
2019-06-20T08:25:13.220Z,28.49
2019-06-20T08:26:13.213Z,28.67
2019-06-20T08:27:14.935Z,28.62
2019-06-20T08:28:13.190Z,28.67
2019-06-20T08:29:20.753Z,28.81
2019-06-20T08:30:14.165Z,29.12
2019-06-20T08:31:13.175Z,29.38
2019-06-20T08:32:13.136Z,29.44
2019-06-20T08:33:13.126Z,29.39
2019-06-20T08:34:13.127Z,29.16
2019-06-20T08:35:13.112Z,28.88
2019-06-20T08:36:13.094Z,28.76
2019-06-20T08:37:13.094Z,28.82
2019-06-20T08:38:13.071Z,29.24
2019-06-20T08:39:13.056Z,29.45
2019-06-20T08:40:13.052Z,29.50
2019-06-20T08:41:13.059Z,29.60
2019-06-20T08:42:13.067Z,30.66
2019-06-20T08:43:13.015Z,34.47
2019-06-20T08:44:13.011Z,37.11
2019-06-20T08:45:12.993Z,39.22
2019-06-20T08:46:12.983Z,41.37
2019-06-20T08:47:12.971Z,42.67
2019-06-20T08:48:12.991Z,40.69
2019-06-20T08:49:12.955Z,38.92
2019-06-20T08:50:12.933Z,38.42
2019-06-20T08:51:14.725Z,40.53
2019-06-20T08:52:12.913Z,41.55
2019-06-20T08:53:12.946Z,41.38
2019-06-20T08:54:12.909Z,40.46
2019-06-20T08:55:12.891Z,38.91
2019-06-20T08:56:12.876Z,37.47
2019-06-20T08:57:12.867Z,36.05
2019-06-20T08:58:12.865Z,34.78
2019-06-20T08:59:23.999Z,33.55
2019-06-20T09:00:13.861Z,32.85
2019-06-20T09:01:12.839Z,32.09
2019-06-20T09:02:12.908Z,32.60
2019-06-20T09:03:12.808Z,33.73
2019-06-20T09:04:12.835Z,32.86
2019-06-20T09:05:12.801Z,32.31
2019-06-20T09:06:12.779Z,31.77
2019-06-20T09:07:12.770Z,31.25
2019-06-20T09:08:12.748Z,30.70
2019-06-20T09:09:12.745Z,30.28
2019-06-20T09:10:12.771Z,29.87
2019-06-20T09:11:12.728Z,29.54
2019-06-20T09:12:12.729Z,29.14
2019-06-20T09:13:12.701Z,28.78
2019-06-20T09:14:12.689Z,28.20
2019-06-20T09:15:12.699Z,27.58
2019-06-20T09:16:24.247Z,27.32
2019-06-20T09:17:13.657Z,27.10
2019-06-20T09:18:12.664Z,26.89
2019-06-20T09:19:12.634Z,26.99
2019-06-20T09:20:12.629Z,26.84
2019-06-20T09:21:12.633Z,26.83
2019-06-20T09:22:12.618Z,26.77
2019-06-20T09:23:12.606Z,26.80
2019-06-20T09:24:12.575Z,26.85
2019-06-20T09:25:12.576Z,26.75
2019-06-20T09:26:17.947Z,26.73
2019-06-20T09:27:12.551Z,26.63
2019-06-20T09:28:12.560Z,26.55
2019-06-20T09:29:12.532Z,26.56
2019-06-20T09:30:12.521Z,26.40
2019-06-20T09:31:12.496Z,26.38
2019-06-20T09:32:12.510Z,26.29
2019-06-20T09:33:12.482Z,26.15
2019-06-20T09:34:12.495Z,26.10
2019-06-20T09:35:12.475Z,26.15
2019-06-20T09:36:12.439Z,26.19
2019-06-20T09:37:12.454Z,26.18
2019-06-20T09:38:12.437Z,26.15
2019-06-20T09:39:12.416Z,26.31
2019-06-20T09:40:12.413Z,26.37
2019-06-20T09:41:12.390Z,26.51
2019-06-20T09:42:12.427Z,26.52
2019-06-20T09:43:26.550Z,26.52
2019-06-20T09:44:13.379Z,26.29
2019-06-20T09:45:12.368Z,26.15
2019-06-20T09:46:12.333Z,26.05
2019-06-20T09:47:12.322Z,26.03
2019-06-20T09:48:12.320Z,26.07
2019-06-20T09:49:12.319Z,26.09
2019-06-20T09:50:12.292Z,26.29
2019-06-20T09:51:12.287Z,26.33
2019-06-20T09:52:12.362Z,26.47
2019-06-20T09:53:12.260Z,26.55
2019-06-20T09:54:12.255Z,26.78
2019-06-20T09:55:12.250Z,27.05
2019-06-20T09:56:12.231Z,27.42
2019-06-20T09:57:12.212Z,27.90
2019-06-20T09:58:12.202Z,28.27
2019-06-20T09:59:26.831Z,28.26
2019-06-20T10:00:13.230Z,28.20
2019-06-20T10:01:12.167Z,28.01
2019-06-20T10:02:12.158Z,27.85
2019-06-20T10:03:12.157Z,27.65
2019-06-20T10:04:12.139Z,28.08
2019-06-20T10:05:12.142Z,29.39
2019-06-20T10:06:14.407Z,30.40
2019-06-20T10:07:12.102Z,30.48
2019-06-20T10:08:12.096Z,32.04
2019-06-20T10:09:12.080Z,31.39
2019-06-20T10:10:12.069Z,30.87
2019-06-20T10:11:12.122Z,31.44
2019-06-20T10:12:12.050Z,31.29
2019-06-20T10:13:12.052Z,31.71
2019-06-20T10:14:12.035Z,34.36
2019-06-20T10:15:12.016Z,33.46
2019-06-20T10:16:12.012Z,33.37
2019-06-20T10:17:12.016Z,33.14
2019-06-20T10:18:11.980Z,32.56
2019-06-20T10:19:13.427Z,32.85
2019-06-20T10:20:11.972Z,32.75
2019-06-20T10:21:11.967Z,33.57
2019-06-20T10:22:11.960Z,33.55
2019-06-20T10:23:11.948Z,33.39
2019-06-20T10:24:11.923Z,32.16
2019-06-20T10:25:11.921Z,32.27
2019-06-20T10:26:11.904Z,33.92
2019-06-20T10:27:11.890Z,34.67
2019-06-20T10:28:11.887Z,35.12
2019-06-20T10:29:11.920Z,35.49
2019-06-20T10:30:14.555Z,37.44
2019-06-20T10:31:11.852Z,38.84
2019-06-20T10:32:11.847Z,40.30
2019-06-20T10:33:11.825Z,41.52
2019-06-20T10:34:11.816Z,42.99
2019-06-20T10:35:11.828Z,44.22
2019-06-20T10:36:11.807Z,44.71
2019-06-20T10:37:11.794Z,45.05
2019-06-20T10:38:11.781Z,44.68
2019-06-20T10:39:11.778Z,44.54
2019-06-20T10:40:11.790Z,44.40
2019-06-20T10:41:11.750Z,44.39
2019-06-20T10:42:11.753Z,44.97
2019-06-20T10:43:11.744Z,45.56
2019-06-20T10:44:11.766Z,45.48
2019-06-20T10:45:11.782Z,45.27
2019-06-20T10:46:11.704Z,45.12
2019-06-20T10:47:11.708Z,45.21
2019-06-20T10:48:11.690Z,45.20
2019-06-20T10:49:11.695Z,45.27
2019-06-20T10:50:11.667Z,44.17
2019-06-20T10:51:11.665Z,44.39
2019-06-20T10:52:11.644Z,44.97
2019-06-20T10:53:11.663Z,45.31
2019-06-20T10:54:11.669Z,45.72
2019-06-20T10:55:11.650Z,44.48
2019-06-20T10:56:11.630Z,42.31
2019-06-20T10:57:11.605Z,40.06
2019-06-20T10:58:11.597Z,38.69
2019-06-20T10:59:11.607Z,37.96
2019-06-20T11:00:11.584Z,37.72
2019-06-20T11:01:11.614Z,37.83
2019-06-20T11:02:11.591Z,37.56
2019-06-20T11:03:11.560Z,37.20
2019-06-20T11:04:11.544Z,36.58
2019-06-20T11:05:11.551Z,35.92
2019-06-20T11:06:11.538Z,35.44
2019-06-20T11:07:11.530Z,34.89
2019-06-20T11:08:11.513Z,34.73
2019-06-20T11:09:11.544Z,34.17
2019-06-20T11:10:11.486Z,34.06
2019-06-20T11:11:13.493Z,34.51
2019-06-20T11:12:11.476Z,35.05
2019-06-20T11:13:11.454Z,35.68
2019-06-20T11:14:11.443Z,36.72
2019-06-20T11:15:11.431Z,37.59
2019-06-20T11:16:11.417Z,37.53
2019-06-20T11:17:11.425Z,38.11
2019-06-20T11:18:11.417Z,38.83
2019-06-20T11:19:11.447Z,38.82
2019-06-20T11:20:11.418Z,39.19
2019-06-20T11:21:11.377Z,40.05
2019-06-20T11:22:11.393Z,40.44
2019-06-20T11:23:11.393Z,41.09
2019-06-20T11:24:11.350Z,40.95
2019-06-20T11:25:11.345Z,39.72
2019-06-20T11:26:11.338Z,39.94
2019-06-20T11:27:32.324Z,40.49
2019-06-20T11:28:11.320Z,40.82
2019-06-20T11:29:11.313Z,40.30
2019-06-20T11:30:11.288Z,39.41
2019-06-20T11:31:11.305Z,38.91
2019-06-20T11:32:11.267Z,38.89
2019-06-20T11:33:11.255Z,37.56
2019-06-20T11:34:11.257Z,37.82
2019-06-20T11:35:11.265Z,38.82
2019-06-20T11:36:11.225Z,39.78
2019-06-20T11:37:11.280Z,39.99
2019-06-20T11:38:11.241Z,40.47
2019-06-20T11:39:11.209Z,41.00
2019-06-20T11:40:11.291Z,41.34
2019-06-20T11:41:11.194Z,41.90
2019-06-20T11:42:11.193Z,41.55
2019-06-20T11:43:11.163Z,40.46
2019-06-20T11:44:11.161Z,37.93
2019-06-20T11:45:11.148Z,35.66
2019-06-20T11:46:11.232Z,33.46
2019-06-20T11:47:11.134Z,32.55
2019-06-20T11:48:11.150Z,32.07
2019-06-20T11:49:11.120Z,32.29
2019-06-20T11:50:11.108Z,33.90
2019-06-20T11:51:11.139Z,35.17
2019-06-20T11:52:11.088Z,35.78
2019-06-20T11:53:11.075Z,36.25
2019-06-20T11:54:11.086Z,36.52
2019-06-20T11:55:11.061Z,37.51
2019-06-20T11:56:11.078Z,38.84
2019-06-20T11:57:11.039Z,39.67
2019-06-20T11:58:11.041Z,39.07
2019-06-20T11:59:11.014Z,38.27
2019-06-20T12:00:11.025Z,37.08
2019-06-20T12:01:11.022Z,36.42
2019-06-20T12:02:11.008Z,36.57
2019-06-20T12:03:10.996Z,36.27
2019-06-20T12:04:11.005Z,36.05
2019-06-20T12:05:10.964Z,36.21
2019-06-20T12:06:10.959Z,36.47
2019-06-20T12:07:10.948Z,36.30
2019-06-20T12:08:10.961Z,35.60
2019-06-20T12:09:10.944Z,35.05
2019-06-20T12:10:10.911Z,34.47
2019-06-20T12:11:10.908Z,33.84
2019-06-20T12:12:10.900Z,33.55
2019-06-20T12:13:10.921Z,33.67
2019-06-20T12:14:10.880Z,33.83
2019-06-20T12:15:10.868Z,33.84
2019-06-20T12:16:10.855Z,33.61
2019-06-20T12:17:10.848Z,33.49
2019-06-20T12:18:10.863Z,33.84
2019-06-20T12:19:10.839Z,34.18
2019-06-20T12:20:10.819Z,34.42
2019-06-20T12:21:10.809Z,35.11
2019-06-20T12:22:10.803Z,35.89
2019-06-20T12:23:10.797Z,36.88
2019-06-20T12:24:10.827Z,37.77
2019-06-20T12:25:10.765Z,38.01
2019-06-20T12:26:10.780Z,38.26
2019-06-20T12:27:10.750Z,38.62
2019-06-20T12:28:10.740Z,38.77
2019-06-20T12:29:10.736Z,38.43
2019-06-20T12:30:10.723Z,38.17
2019-06-20T12:31:19.500Z,37.92
2019-06-20T12:32:11.704Z,37.71
2019-06-20T12:33:10.709Z,37.93
2019-06-20T12:34:10.692Z,38.12
2019-06-20T12:35:10.708Z,38.54
2019-06-20T12:36:10.663Z,38.67
2019-06-20T12:37:10.680Z,38.38
2019-06-20T12:38:10.659Z,37.97
2019-06-20T12:39:10.648Z,37.78
2019-06-20T12:40:10.632Z,37.75
2019-06-20T12:41:10.665Z,37.63
2019-06-20T12:42:10.627Z,37.63
2019-06-20T12:43:10.614Z,37.63
2019-06-20T12:44:10.617Z,37.28
2019-06-20T12:45:10.585Z,37.03
2019-06-20T12:46:10.580Z,36.72
2019-06-20T12:47:10.588Z,36.64
2019-06-20T12:48:10.553Z,35.93
2019-06-20T12:49:10.549Z,35.66
2019-06-20T12:50:10.565Z,35.51
2019-06-20T12:51:10.574Z,35.34
2019-06-20T12:52:10.552Z,35.07